sensor_id;sensor_type;location;lat;lon;timestamp;pressure;altitude;pressure_sealevel;temperature;humidity
49216;BME280;45943;53.148;8.204;2023-02-01T00:02:02;101495.09;;;7.57;100.00
49216;BME280;45943;53.148;8.204;2023-02-01T00:04:28;101496.66;;;7.61;100.00
49216;BME280;45943;53.148;8.204;2023-02-01T00:06:54;101499.84;;;7.67;100.00
49216;BME280;45943;53.148;8.204;2023-02-01T00:09:20;101496.28;;;7.67;100.00
49216;BME280;45943;53.148;8.204;2023-02-01T00:11:46;101498.91;;;7.68;100.00
49216;BME280;45943;53.148;8.204;2023-02-01T00:14:13;101480.09;;;7.70;100.00
49216;BME280;45943;53.148;8.204;2023-02-01T00:16:39;101486.03;;;7.75;100.00
49216;BME280;45943;53.148;8.204;2023-02-01T00:19:10;101469.25;;;7.73;100.00
49216;BME280;45943;53.148;8.204;2023-02-01T00:21:38;101466.63;;;7.57;100.00
49216;BME280;45943;53.148;8.204;2023-02-01T00:24:04;101467.81;;;7.67;100.00
49216;BME280;45943;53.148;8.204;2023-02-01T00:26:34;101465.03;;;7.69;100.00
49216;BME280;45943;53.148;8.204;2023-02-01T00:29:03;101470.47;;;7.67;100.00
49216;BME280;45943;53.148;8.204;2023-02-01T00:31:36;101472.44;;;7.64;100.00
49216;BME280;45943;53.148;8.204;2023-02-01T00:34:02;101466.00;;;7.68;100.00
49216;BME280;45943;53.148;8.204;2023-02-01T00:36:29;101459.69;;;7.69;100.00
49216;BME280;45943;53.148;8.204;2023-02-01T00:38:55;101471.91;;;7.73;100.00
49216;BME280;45943;53.148;8.204;2023-02-01T00:41:21;101464.94;;;7.70;100.00
49216;BME280;45943;53.148;8.204;2023-02-01T00:43:48;101458.13;;;7.65;100.00
49216;BME280;45943;53.148;8.204;2023-02-01T00:46:16;101451.94;;;7.64;100.00
49216;BME280;45943;53.148;8.204;2023-02-01T00:48:43;101456.31;;;7.65;100.00
49216;BME280;45943;53.148;8.204;2023-02-01T00:51:11;101455.75;;;7.60;100.00
49216;BME280;45943;53.148;8.204;2023-02-01T00:53:40;101454.63;;;7.64;100.00
49216;BME280;45943;53.148;8.204;2023-02-01T00:56:07;101450.13;;;7.65;100.00
49216;BME280;45943;53.148;8.204;2023-02-01T00:58:33;101445.75;;;7.64;100.00
49216;BME280;45943;53.148;8.204;2023-02-01T01:01:16;101441.09;;;7.67;100.00
49216;BME280;45943;53.148;8.204;2023-02-01T01:03:48;101440.06;;;7.70;100.00
49216;BME280;45943;53.148;8.204;2023-02-01T01:06:21;101436.78;;;7.65;100.00
49216;BME280;45943;53.148;8.204;2023-02-01T01:08:53;101437.72;;;7.64;100.00
49216;BME280;45943;53.148;8.204;2023-02-01T01:11:21;101435.06;;;7.64;100.00
49216;BME280;45943;53.148;8.204;2023-02-01T01:13:50;101435.50;;;7.56;100.00
49216;BME280;45943;53.148;8.204;2023-02-01T01:16:17;101429.41;;;7.54;100.00
49216;BME280;45943;53.148;8.204;2023-02-01T01:18:43;101430.97;;;7.58;100.00
49216;BME280;45943;53.148;8.204;2023-02-01T01:21:11;101429.81;;;7.62;100.00
49216;BME280;45943;53.148;8.204;2023-02-01T01:23:39;101426.28;;;7.62;100.00
49216;BME280;45943;53.148;8.204;2023-02-01T01:26:09;101426.63;;;7.56;100.00
49216;BME280;45943;53.148;8.204;2023-02-01T01:28:39;101425.53;;;7.60;100.00
49216;BME280;45943;53.148;8.204;2023-02-01T01:31:11;101421.25;;;7.57;100.00
49216;BME280;45943;53.148;8.204;2023-02-01T01:33:39;101420.34;;;7.57;100.00
49216;BME280;45943;53.148;8.204;2023-02-01T01:36:06;101413.13;;;7.59;100.00
49216;BME280;45943;53.148;8.204;2023-02-01T01:38:35;101411.22;;;7.61;100.00
49216;BME280;45943;53.148;8.204;2023-02-01T01:41:01;101400.34;;;7.64;100.00
49216;BME280;45943;53.148;8.204;2023-02-01T01:43:44;101407.31;;;7.66;100.00
49216;BME280;45943;53.148;8.204;2023-02-01T01:46:15;101394.75;;;7.68;100.00
49216;BME280;45943;53.148;8.204;2023-02-01T01:48:42;101400.09;;;7.68;100.00
49216;BME280;45943;53.148;8.204;2023-02-01T01:51:08;101388.63;;;7.66;100.00
49216;BME280;45943;53.148;8.204;2023-02-01T01:53:38;101383.47;;;7.63;100.00
49216;BME280;45943;53.148;8.204;2023-02-01T01:56:10;101381.47;;;7.67;100.00
49216;BME280;45943;53.148;8.204;2023-02-01T01:58:37;101372.69;;;7.65;100.00
49216;BME280;45943;53.148;8.204;2023-02-01T02:01:03;101378.13;;;7.63;100.00
49216;BME280;45943;53.148;8.204;2023-02-01T02:03:39;101367.19;;;7.68;100.00
49216;BME280;45943;53.148;8.204;2023-02-01T02:06:42;101357.84;;;7.75;100.00
49216;BME280;45943;53.148;8.204;2023-02-01T02:09:10;101361.47;;;7.74;100.00
49216;BME280;45943;53.148;8.204;2023-02-01T02:11:37;101359.44;;;7.63;100.00
49216;BME280;45943;53.148;8.204;2023-02-01T02:14:03;101351.53;;;7.62;100.00
49216;BME280;45943;53.148;8.204;2023-02-01T02:24:39;101335.50;;;7.62;100.00
49216;BME280;45943;53.148;8.204;2023-02-01T02:30:22;101321.88;;;7.66;100.00
49216;BME280;45943;53.148;8.204;2023-02-01T02:32:59;101324.53;;;7.66;100.00
49216;BME280;45943;53.148;8.204;2023-02-01T02:35:58;101322.47;;;7.57;100.00
49216;BME280;45943;53.148;8.204;2023-02-01T02:38:32;101305.84;;;7.52;100.00
49216;BME280;45943;53.148;8.204;2023-02-01T02:41:18;101313.84;;;7.52;100.00
49216;BME280;45943;53.148;8.204;2023-02-01T02:44:13;101308.06;;;7.60;100.00
49216;BME280;45943;53.148;8.204;2023-02-01T02:50:24;101300.91;;;7.60;100.00
49216;BME280;45943;53.148;8.204;2023-02-01T02:53:17;101290.13;;;7.62;100.00
49216;BME280;45943;53.148;8.204;2023-02-01T02:56:06;101297.28;;;7.61;100.00
49216;BME280;45943;53.148;8.204;2023-02-01T02:58:52;101283.16;;;7.59;100.00
49216;BME280;45943;53.148;8.204;2023-02-01T03:01:37;101283.84;;;7.63;100.00
49216;BME280;45943;53.148;8.204;2023-02-01T03:04:22;101297.53;;;7.57;100.00
49216;BME280;45943;53.148;8.204;2023-02-01T03:06:49;101285.34;;;7.53;100.00
49216;BME280;45943;53.148;8.204;2023-02-01T03:09:20;101285.63;;;7.48;100.00
49216;BME280;45943;53.148;8.204;2023-02-01T03:12:04;101289.22;;;7.33;100.00
49216;BME280;45943;53.148;8.204;2023-02-01T03:14:57;101284.94;;;7.30;100.00
49216;BME280;45943;53.148;8.204;2023-02-01T03:17:34;101273.00;;;7.22;100.00
49216;BME280;45943;53.148;8.204;2023-02-01T03:20:05;101273.78;;;7.08;100.00
49216;BME280;45943;53.148;8.204;2023-02-01T03:22:34;101269.91;;;7.13;100.00
49216;BME280;45943;53.148;8.204;2023-02-01T03:27:43;101271.72;;;7.13;100.00
49216;BME280;45943;53.148;8.204;2023-02-01T03:30:20;101271.72;;;7.13;100.00
49216;BME280;45943;53.148;8.204;2023-02-01T03:32:49;101251.22;;;6.99;100.00
49216;BME280;45943;53.148;8.204;2023-02-01T03:35:26;101250.34;;;6.99;100.00
49216;BME280;45943;53.148;8.204;2023-02-01T03:41:15;101258.38;;;6.99;100.00
49216;BME280;45943;53.148;8.204;2023-02-01T03:46:13;101245.09;;;6.97;100.00
49216;BME280;45943;53.148;8.204;2023-02-01T03:48:48;101234.03;;;6.89;100.00
49216;BME280;45943;53.148;8.204;2023-02-01T03:51:17;101229.63;;;6.88;100.00
49216;BME280;45943;53.148;8.204;2023-02-01T03:53:44;101218.38;;;6.83;100.00
49216;BME280;45943;53.148;8.204;2023-02-01T03:56:15;101209.00;;;6.92;100.00
49216;BME280;45943;53.148;8.204;2023-02-01T03:58:44;101210.63;;;6.94;100.00
49216;BME280;45943;53.148;8.204;2023-02-01T04:01:25;101212.38;;;6.79;100.00
49216;BME280;45943;53.148;8.204;2023-02-01T04:03:52;101219.06;;;6.86;100.00
49216;BME280;45943;53.148;8.204;2023-02-01T04:06:18;101222.53;;;6.88;100.00
49216;BME280;45943;53.148;8.204;2023-02-01T04:08:44;101201.25;;;6.87;100.00
49216;BME280;45943;53.148;8.204;2023-02-01T04:11:10;101215.28;;;6.90;100.00
49216;BME280;45943;53.148;8.204;2023-02-01T04:13:36;101208.28;;;6.88;100.00
49216;BME280;45943;53.148;8.204;2023-02-01T04:16:02;101196.50;;;6.92;100.00
49216;BME280;45943;53.148;8.204;2023-02-01T04:18:28;101186.59;;;6.94;100.00
49216;BME280;45943;53.148;8.204;2023-02-01T04:20:54;101205.38;;;6.93;100.00
49216;BME280;45943;53.148;8.204;2023-02-01T04:23:20;101199.75;;;6.97;100.00
49216;BME280;45943;53.148;8.204;2023-02-01T04:25:46;101204.63;;;6.90;100.00
49216;BME280;45943;53.148;8.204;2023-02-01T04:28:12;101194.03;;;6.89;100.00
49216;BME280;45943;53.148;8.204;2023-02-01T04:30:38;101196.16;;;6.98;100.00
49216;BME280;45943;53.148;8.204;2023-02-01T04:33:04;101197.69;;;7.02;100.00
49216;BME280;45943;53.148;8.204;2023-02-01T04:35:33;101191.19;;;6.92;100.00
49216;BME280;45943;53.148;8.204;2023-02-01T04:37:59;101195.22;;;6.99;100.00
49216;BME280;45943;53.148;8.204;2023-02-01T04:40:25;101180.81;;;7.02;100.00
49216;BME280;45943;53.148;8.204;2023-02-01T04:42:51;101177.31;;;7.01;100.00
49216;BME280;45943;53.148;8.204;2023-02-01T04:45:18;101172.06;;;7.00;100.00
49216;BME280;45943;53.148;8.204;2023-02-01T04:47:44;101176.25;;;7.04;100.00
49216;BME280;45943;53.148;8.204;2023-02-01T04:50:10;101177.84;;;7.06;100.00
49216;BME280;45943;53.148;8.204;2023-02-01T04:52:36;101182.03;;;6.96;100.00
49216;BME280;45943;53.148;8.204;2023-02-01T04:55:03;101164.44;;;7.08;100.00
49216;BME280;45943;53.148;8.204;2023-02-01T04:57:29;101180.72;;;7.03;100.00
49216;BME280;45943;53.148;8.204;2023-02-01T04:59:55;101189.09;;;6.97;100.00
49216;BME280;45943;53.148;8.204;2023-02-01T05:02:21;101186.03;;;6.89;100.00
49216;BME280;45943;53.148;8.204;2023-02-01T05:04:47;101185.00;;;6.92;100.00
49216;BME280;45943;53.148;8.204;2023-02-01T05:07:13;101179.66;;;6.92;100.00
49216;BME280;45943;53.148;8.204;2023-02-01T05:09:39;101179.56;;;6.93;100.00
49216;BME280;45943;53.148;8.204;2023-02-01T05:12:05;101187.47;;;6.95;100.00
49216;BME280;45943;53.148;8.204;2023-02-01T05:14:50;101191.84;;;6.96;100.00
49216;BME280;45943;53.148;8.204;2023-02-01T05:17:16;101186.41;;;6.97;100.00
49216;BME280;45943;53.148;8.204;2023-02-01T05:19:42;101181.28;;;6.94;100.00
49216;BME280;45943;53.148;8.204;2023-02-01T05:22:08;101164.41;;;6.94;100.00
49216;BME280;45943;53.148;8.204;2023-02-01T05:24:34;101180.31;;;6.95;100.00
49216;BME280;45943;53.148;8.204;2023-02-01T05:27:00;101176.53;;;6.99;100.00
49216;BME280;45943;53.148;8.204;2023-02-01T05:29:26;101165.69;;;7.02;100.00
49216;BME280;45943;53.148;8.204;2023-02-01T05:31:52;101163.28;;;6.98;100.00
49216;BME280;45943;53.148;8.204;2023-02-01T05:34:18;101167.50;;;7.02;100.00
49216;BME280;45943;53.148;8.204;2023-02-01T05:36:44;101159.75;;;6.97;100.00
49216;BME280;45943;53.148;8.204;2023-02-01T05:39:10;101165.28;;;6.94;100.00
49216;BME280;45943;53.148;8.204;2023-02-01T05:41:36;101149.88;;;6.99;100.00
49216;BME280;45943;53.148;8.204;2023-02-01T05:44:02;101174.53;;;7.03;100.00
49216;BME280;45943;53.148;8.204;2023-02-01T05:46:28;101173.56;;;7.04;100.00
49216;BME280;45943;53.148;8.204;2023-02-01T05:48:54;101155.56;;;7.07;100.00
49216;BME280;45943;53.148;8.204;2023-02-01T05:51:20;101165.69;;;7.02;100.00
49216;BME280;45943;53.148;8.204;2023-02-01T05:53:46;101166.84;;;7.12;100.00
49216;BME280;45943;53.148;8.204;2023-02-01T05:56:12;101182.19;;;7.09;100.00
49216;BME280;45943;53.148;8.204;2023-02-01T05:58:38;101202.56;;;7.10;100.00
49216;BME280;45943;53.148;8.204;2023-02-01T06:01:04;101185.59;;;7.11;100.00
49216;BME280;45943;53.148;8.204;2023-02-01T06:03:30;101196.75;;;7.17;100.00
49216;BME280;45943;53.148;8.204;2023-02-01T06:05:56;101207.06;;;7.24;100.00
49216;BME280;45943;53.148;8.204;2023-02-01T06:08:22;101198.47;;;7.18;100.00
49216;BME280;45943;53.148;8.204;2023-02-01T06:10:51;101185.75;;;7.08;100.00
49216;BME280;45943;53.148;8.204;2023-02-01T06:13:23;101190.38;;;7.20;100.00
49216;BME280;45943;53.148;8.204;2023-02-01T06:15:49;101180.56;;;7.21;100.00
49216;BME280;45943;53.148;8.204;2023-02-01T06:18:15;101187.81;;;7.18;100.00
49216;BME280;45943;53.148;8.204;2023-02-01T06:20:41;101195.41;;;7.10;100.00
49216;BME280;45943;53.148;8.204;2023-02-01T06:23:07;101203.50;;;7.09;100.00
49216;BME280;45943;53.148;8.204;2023-02-01T06:25:33;101197.03;;;7.13;100.00
49216;BME280;45943;53.148;8.204;2023-02-01T06:28:00;101198.84;;;7.12;100.00
49216;BME280;45943;53.148;8.204;2023-02-01T06:30:26;101198.09;;;7.10;100.00
49216;BME280;45943;53.148;8.204;2023-02-01T06:32:53;101205.22;;;7.10;100.00
49216;BME280;45943;53.148;8.204;2023-02-01T06:35:21;101191.28;;;7.05;100.00
49216;BME280;45943;53.148;8.204;2023-02-01T06:37:47;101187.56;;;7.07;100.00
49216;BME280;45943;53.148;8.204;2023-02-01T06:40:13;101199.41;;;7.17;100.00
49216;BME280;45943;53.148;8.204;2023-02-01T06:42:39;101192.75;;;7.25;100.00
49216;BME280;45943;53.148;8.204;2023-02-01T06:45:05;101190.28;;;7.22;100.00
49216;BME280;45943;53.148;8.204;2023-02-01T06:47:32;101208.88;;;7.23;100.00
49216;BME280;45943;53.148;8.204;2023-02-01T06:49:58;101207.81;;;7.26;100.00
49216;BME280;45943;53.148;8.204;2023-02-01T06:52:24;101215.06;;;7.24;100.00
49216;BME280;45943;53.148;8.204;2023-02-01T06:54:50;101206.78;;;7.28;100.00
49216;BME280;45943;53.148;8.204;2023-02-01T06:57:16;101226.88;;;7.34;100.00
49216;BME280;45943;53.148;8.204;2023-02-01T06:59:42;101214.50;;;7.33;100.00
49216;BME280;45943;53.148;8.204;2023-02-01T07:02:11;101216.59;;;7.28;100.00
49216;BME280;45943;53.148;8.204;2023-02-01T07:04:37;101220.13;;;7.28;100.00
49216;BME280;45943;53.148;8.204;2023-02-01T07:07:03;101217.38;;;7.30;100.00
49216;BME280;45943;53.148;8.204;2023-02-01T07:09:29;101222.97;;;7.25;100.00
49216;BME280;45943;53.148;8.204;2023-02-01T07:11:55;101226.31;;;7.29;100.00
49216;BME280;45943;53.148;8.204;2023-02-01T07:14:21;101234.22;;;7.30;100.00
49216;BME280;45943;53.148;8.204;2023-02-01T07:16:47;101223.25;;;7.21;100.00
49216;BME280;45943;53.148;8.204;2023-02-01T07:19:13;101216.00;;;7.23;100.00
49216;BME280;45943;53.148;8.204;2023-02-01T07:21:39;101232.50;;;7.29;100.00
49216;BME280;45943;53.148;8.204;2023-02-01T07:24:05;101229.06;;;7.27;100.00
49216;BME280;45943;53.148;8.204;2023-02-01T07:26:31;101236.69;;;7.19;100.00
49216;BME280;45943;53.148;8.204;2023-02-01T07:28:57;101243.44;;;7.25;100.00
49216;BME280;45943;53.148;8.204;2023-02-01T07:31:23;101237.84;;;7.29;100.00
49216;BME280;45943;53.148;8.204;2023-02-01T07:33:52;101243.53;;;7.23;100.00
49216;BME280;45943;53.148;8.204;2023-02-01T07:36:18;101240.69;;;7.26;100.00
49216;BME280;45943;53.148;8.204;2023-02-01T07:38:45;101255.69;;;7.29;100.00
49216;BME280;45943;53.148;8.204;2023-02-01T07:41:12;101246.72;;;7.30;100.00
49216;BME280;45943;53.148;8.204;2023-02-01T07:43:38;101254.72;;;7.30;100.00
49216;BME280;45943;53.148;8.204;2023-02-01T07:46:05;101257.28;;;7.31;100.00
49216;BME280;45943;53.148;8.204;2023-02-01T07:48:32;101254.63;;;7.31;100.00
49216;BME280;45943;53.148;8.204;2023-02-01T07:51:00;101262.03;;;7.26;100.00
49216;BME280;45943;53.148;8.204;2023-02-01T07:53:28;101276.94;;;7.30;100.00
49216;BME280;45943;53.148;8.204;2023-02-01T07:55:55;101265.41;;;7.30;100.00
49216;BME280;45943;53.148;8.204;2023-02-01T07:58:24;101279.59;;;7.30;100.00
49216;BME280;45943;53.148;8.204;2023-02-01T08:00:51;101266.25;;;7.30;100.00
49216;BME280;45943;53.148;8.204;2023-02-01T08:03:35;101264.25;;;7.34;100.00
49216;BME280;45943;53.148;8.204;2023-02-01T08:06:02;101261.69;;;7.32;100.00
49216;BME280;45943;53.148;8.204;2023-02-01T08:08:28;101259.75;;;7.34;100.00
49216;BME280;45943;53.148;8.204;2023-02-01T08:10:58;101266.72;;;7.37;100.00
49216;BME280;45943;53.148;8.204;2023-02-01T08:13:28;101270.47;;;7.48;100.00
49216;BME280;45943;53.148;8.204;2023-02-01T08:15:58;101273.16;;;7.48;100.00
49216;BME280;45943;53.148;8.204;2023-02-01T08:18:25;101265.81;;;7.52;100.00
49216;BME280;45943;53.148;8.204;2023-02-01T08:20:51;101266.41;;;7.57;100.00
49216;BME280;45943;53.148;8.204;2023-02-01T08:23:17;101260.66;;;7.63;100.00
49216;BME280;45943;53.148;8.204;2023-02-01T08:25:43;101272.09;;;7.65;100.00
49216;BME280;45943;53.148;8.204;2023-02-01T08:28:09;101275.63;;;7.66;100.00
49216;BME280;45943;53.148;8.204;2023-02-01T08:30:36;101260.75;;;7.62;100.00
49216;BME280;45943;53.148;8.204;2023-02-01T08:33:04;101265.34;;;7.60;100.00
49216;BME280;45943;53.148;8.204;2023-02-01T08:35:34;101262.84;;;7.57;100.00
49216;BME280;45943;53.148;8.204;2023-02-01T08:38:01;101263.34;;;7.63;100.00
49216;BME280;45943;53.148;8.204;2023-02-01T08:40:27;101261.53;;;7.64;100.00
49216;BME280;45943;53.148;8.204;2023-02-01T08:42:53;101260.75;;;7.62;100.00
49216;BME280;45943;53.148;8.204;2023-02-01T08:45:23;101262.97;;;7.69;100.00
49216;BME280;45943;53.148;8.204;2023-02-01T08:47:51;101281.81;;;7.66;100.00
49216;BME280;45943;53.148;8.204;2023-02-01T08:50:18;101270.78;;;7.72;100.00
49216;BME280;45943;53.148;8.204;2023-02-01T08:52:46;101266.28;;;7.73;100.00
49216;BME280;45943;53.148;8.204;2023-02-01T08:55:12;101265.06;;;7.79;100.00
49216;BME280;45943;53.148;8.204;2023-02-01T08:57:39;101265.94;;;7.79;100.00
49216;BME280;45943;53.148;8.204;2023-02-01T09:00:07;101268.59;;;7.79;100.00
49216;BME280;45943;53.148;8.204;2023-02-01T09:02:36;101270.97;;;7.69;100.00
49216;BME280;45943;53.148;8.204;2023-02-01T09:05:02;101273.66;;;7.69;100.00
49216;BME280;45943;53.148;8.204;2023-02-01T09:07:29;101256.38;;;7.75;100.00
49216;BME280;45943;53.148;8.204;2023-02-01T09:09:56;101253.44;;;7.80;100.00
49216;BME280;45943;53.148;8.204;2023-02-01T09:12:25;101245.50;;;7.78;100.00
49216;BME280;45943;53.148;8.204;2023-02-01T09:14:51;101248.94;;;7.80;100.00
49216;BME280;45943;53.148;8.204;2023-02-01T09:17:17;101252.75;;;7.76;100.00
49216;BME280;45943;53.148;8.204;2023-02-01T09:19:43;101251.50;;;7.82;100.00
49216;BME280;45943;53.148;8.204;2023-02-01T09:22:09;101260.97;;;7.87;100.00
49216;BME280;45943;53.148;8.204;2023-02-01T09:24:35;101246.19;;;7.82;100.00
49216;BME280;45943;53.148;8.204;2023-02-01T09:27:01;101247.63;;;7.87;100.00
49216;BME280;45943;53.148;8.204;2023-02-01T09:29:27;101239.19;;;7.93;100.00
49216;BME280;45943;53.148;8.204;2023-02-01T09:31:53;101241.22;;;7.90;100.00
49216;BME280;45943;53.148;8.204;2023-02-01T09:34:19;101231.28;;;7.92;100.00
49216;BME280;45943;53.148;8.204;2023-02-01T09:36:45;101226.69;;;7.94;100.00
49216;BME280;45943;53.148;8.204;2023-02-01T09:39:11;101220.59;;;7.92;100.00
49216;BME280;45943;53.148;8.204;2023-02-01T09:47:11;101221.19;;;7.97;100.00
49216;BME280;45943;53.148;8.204;2023-02-01T09:49:48;101226.31;;;8.00;100.00
49216;BME280;45943;53.148;8.204;2023-02-01T09:55:36;101236.63;;;7.92;100.00
49216;BME280;45943;53.148;8.204;2023-02-01T09:58:08;101229.47;;;7.92;100.00
49216;BME280;45943;53.148;8.204;2023-02-01T10:00:39;101225.09;;;7.91;100.00
49216;BME280;45943;53.148;8.204;2023-02-01T10:03:10;101220.50;;;7.93;100.00
49216;BME280;45943;53.148;8.204;2023-02-01T10:08:20;101202.38;;;7.84;100.00
49216;BME280;45943;53.148;8.204;2023-02-01T10:11:01;101208.78;;;7.82;100.00
49216;BME280;45943;53.148;8.204;2023-02-01T10:19:20;101195.63;;;7.64;100.00
49216;BME280;45943;53.148;8.204;2023-02-01T10:21:52;101199.25;;;7.63;100.00
49216;BME280;45943;53.148;8.204;2023-02-01T10:24:26;101192.31;;;7.61;100.00
49216;BME280;45943;53.148;8.204;2023-02-01T10:29:39;101191.25;;;7.63;100.00
49216;BME280;45943;53.148;8.204;2023-02-01T10:32:15;101181.63;;;7.61;100.00
49216;BME280;45943;53.148;8.204;2023-02-01T10:35:05;101161.03;;;7.63;100.00
49216;BME280;45943;53.148;8.204;2023-02-01T10:37:39;101153.50;;;7.55;100.00
49216;BME280;45943;53.148;8.204;2023-02-01T10:40:12;101147.78;;;7.61;100.00
49216;BME280;45943;53.148;8.204;2023-02-01T10:42:43;101160.91;;;7.64;100.00
49216;BME280;45943;53.148;8.204;2023-02-01T10:45:12;101151.59;;;7.57;100.00
49216;BME280;45943;53.148;8.204;2023-02-01T10:47:41;101142.16;;;7.52;100.00
49216;BME280;45943;53.148;8.204;2023-02-01T10:50:51;101141.19;;;7.53;100.00
49216;BME280;45943;53.148;8.204;2023-02-01T10:55:53;101132.81;;;7.44;100.00
49216;BME280;45943;53.148;8.204;2023-02-01T10:58:27;101120.78;;;7.37;100.00
49216;BME280;45943;53.148;8.204;2023-02-01T11:01:01;101110.72;;;7.42;100.00
49216;BME280;45943;53.148;8.204;2023-02-01T11:03:43;101105.16;;;7.45;100.00
49216;BME280;45943;53.148;8.204;2023-02-01T11:06:36;101091.94;;;7.30;100.00
49216;BME280;45943;53.148;8.204;2023-02-01T11:11:33;101072.41;;;7.15;100.00
49216;BME280;45943;53.148;8.204;2023-02-01T11:16:54;101078.59;;;7.15;100.00
49216;BME280;45943;53.148;8.204;2023-02-01T11:19:22;101068.88;;;7.14;100.00
49216;BME280;45943;53.148;8.204;2023-02-01T11:21:49;101057.94;;;7.05;100.00
49216;BME280;45943;53.148;8.204;2023-02-01T11:24:38;101037.06;;;7.11;100.00
49216;BME280;45943;53.148;8.204;2023-02-01T11:27:06;101037.75;;;6.86;100.00
49216;BME280;45943;53.148;8.204;2023-02-01T11:29:43;101018.06;;;6.89;100.00
49216;BME280;45943;53.148;8.204;2023-02-01T11:32:13;101030.03;;;6.82;100.00
49216;BME280;45943;53.148;8.204;2023-02-01T11:34:45;101022.13;;;6.80;100.00
49216;BME280;45943;53.148;8.204;2023-02-01T11:37:27;101021.47;;;6.91;100.00
49216;BME280;45943;53.148;8.204;2023-02-01T11:39:57;100999.28;;;6.90;100.00
49216;BME280;45943;53.148;8.204;2023-02-01T11:42:25;100991.09;;;6.94;100.00
49216;BME280;45943;53.148;8.204;2023-02-01T11:45:09;100981.91;;;6.98;100.00
49216;BME280;45943;53.148;8.204;2023-02-01T11:47:44;100953.75;;;6.94;100.00
49216;BME280;45943;53.148;8.204;2023-02-01T11:50:16;100961.09;;;6.90;100.00
49216;BME280;45943;53.148;8.204;2023-02-01T11:58:26;100975.66;;;6.84;100.00
49216;BME280;45943;53.148;8.204;2023-02-01T12:01:20;101067.38;;;6.82;100.00
49216;BME280;45943;53.148;8.204;2023-02-01T12:12:28;101110.19;;;6.35;100.00
49216;BME280;45943;53.148;8.204;2023-02-01T12:18:03;101149.28;;;6.34;100.00
49216;BME280;45943;53.148;8.204;2023-02-01T12:20:52;101158.13;;;6.35;100.00
49216;BME280;45943;53.148;8.204;2023-02-01T12:23:46;101143.63;;;6.40;100.00
49216;BME280;45943;53.148;8.204;2023-02-01T12:26:35;101150.66;;;6.41;100.00
49216;BME280;45943;53.148;8.204;2023-02-01T12:29:18;101141.81;;;6.41;100.00
49216;BME280;45943;53.148;8.204;2023-02-01T12:32:06;101140.41;;;6.49;100.00
49216;BME280;45943;53.148;8.204;2023-02-01T12:34:56;101132.66;;;6.60;100.00
49216;BME280;45943;53.148;8.204;2023-02-01T12:42:59;101131.44;;;6.80;100.00
49216;BME280;45943;53.148;8.204;2023-02-01T12:45:34;101130.31;;;6.84;100.00
49216;BME280;45943;53.148;8.204;2023-02-01T12:48:19;101138.69;;;6.93;100.00
49216;BME280;45943;53.148;8.204;2023-02-01T12:50:49;101133.47;;;6.91;100.00
49216;BME280;45943;53.148;8.204;2023-02-01T12:53:27;101141.00;;;6.99;100.00
49216;BME280;45943;53.148;8.204;2023-02-01T12:56:03;101141.56;;;7.04;100.00
49216;BME280;45943;53.148;8.204;2023-02-01T12:58:40;101142.63;;;7.01;100.00
49216;BME280;45943;53.148;8.204;2023-02-01T13:01:30;101142.44;;;7.04;100.00
49216;BME280;45943;53.148;8.204;2023-02-01T13:04:18;101134.63;;;7.01;100.00
49216;BME280;45943;53.148;8.204;2023-02-01T13:06:55;101123.25;;;6.98;100.00
49216;BME280;45943;53.148;8.204;2023-02-01T13:09:41;101131.41;;;7.10;100.00
49216;BME280;45943;53.148;8.204;2023-02-01T13:12:17;101123.75;;;7.61;100.00
49216;BME280;45943;53.148;8.204;2023-02-01T13:14:54;101120.16;;;8.43;100.00
49216;BME280;45943;53.148;8.204;2023-02-01T13:17:24;101127.34;;;9.08;100.00
49216;BME280;45943;53.148;8.204;2023-02-01T13:19:55;101114.78;;;9.46;100.00
49216;BME280;45943;53.148;8.204;2023-02-01T13:22:33;101125.22;;;9.75;100.00
49216;BME280;45943;53.148;8.204;2023-02-01T13:25:07;101114.81;;;10.07;100.00
49216;BME280;45943;53.148;8.204;2023-02-01T13:27:46;101100.69;;;10.29;100.00
49216;BME280;45943;53.148;8.204;2023-02-01T13:30:23;101111.66;;;10.26;100.00
49216;BME280;45943;53.148;8.204;2023-02-01T13:38:39;101106.34;;;9.76;100.00
49216;BME280;45943;53.148;8.204;2023-02-01T13:41:31;101111.75;;;9.64;100.00
49216;BME280;45943;53.148;8.204;2023-02-01T13:43:59;101094.06;;;9.74;100.00
49216;BME280;45943;53.148;8.204;2023-02-01T13:46:28;101092.66;;;9.92;100.00
49216;BME280;45943;53.148;8.204;2023-02-01T13:48:56;101107.94;;;9.79;100.00
49216;BME280;45943;53.148;8.204;2023-02-01T13:54:23;101095.59;;;9.89;100.00
49216;BME280;45943;53.148;8.204;2023-02-01T13:57:04;101103.66;;;10.13;100.00
49216;BME280;45943;53.148;8.204;2023-02-01T14:05:08;101103.28;;;10.42;100.00
49216;BME280;45943;53.148;8.204;2023-02-01T14:07:36;101099.00;;;10.63;100.00
49216;BME280;45943;53.148;8.204;2023-02-01T14:13:12;101109.53;;;10.42;100.00
49216;BME280;45943;53.148;8.204;2023-02-01T14:15:38;101107.91;;;10.16;100.00
49216;BME280;45943;53.148;8.204;2023-02-01T14:21:15;101107.09;;;9.29;100.00
49216;BME280;45943;53.148;8.204;2023-02-01T14:23:46;101115.25;;;9.15;100.00
49216;BME280;45943;53.148;8.204;2023-02-01T14:26:24;101111.81;;;9.00;100.00
49216;BME280;45943;53.148;8.204;2023-02-01T14:29:10;101107.72;;;9.33;100.00
49216;BME280;45943;53.148;8.204;2023-02-01T14:32:04;101120.97;;;9.60;100.00
49216;BME280;45943;53.148;8.204;2023-02-01T14:34:39;101115.94;;;9.55;100.00
49216;BME280;45943;53.148;8.204;2023-02-01T14:42:29;101127.31;;;9.95;100.00
49216;BME280;45943;53.148;8.204;2023-02-01T14:47:44;101134.59;;;9.57;100.00
49216;BME280;45943;53.148;8.204;2023-02-01T14:50:17;101138.66;;;9.49;100.00
49216;BME280;45943;53.148;8.204;2023-02-01T14:52:46;101146.03;;;9.33;100.00